Time;durP1;ratioP1;P1;durP2;ratioP2;P2;SDS_P1;SDS_P2;PMS_P1;PMS_P2;Temp;Humidity;BMP_temperature;BMP_pressure;BME280_temperature;BME280_humidity;BME280_pressure;Samples;Min_cycle;Max_cycle;Signal;HPM_P1;HPM_P2
2023/04/02 00:00:08;;;;;;;;;;;;;;;14.29;100.00;100922.06;5111791;28;20002;-57
2023/04/02 00:02:55;;;;;;;;;;;;;;;14.52;100.00;100917.94;5111872;28;19925;-56
2023/04/02 00:05:29;;;;;;;;;;;;;;;14.71;100.00;100935.03;5114572;28;19927;-54
2023/04/02 00:07:56;;;;;;;;;;;;;;;14.35;100.00;100931.97;5119266;28;19915;-52
2023/04/02 00:10:31;;;;;;;;;;;;;;;14.83;100.00;100929.75;5118209;28;19917;-57
2023/04/02 00:13:01;;;;;;;;;;;;;;;14.72;100.00;100940.19;5123082;28;19920;-54
2023/04/02 00:15:27;;;;;;;;;;;;;;;14.65;100.00;100946.63;5113734;28;19938;-56
2023/04/02 00:17:52;;;;;;;;;;;;;;;14.56;100.00;100948.78;5111977;28;19916;-55
2023/04/02 00:20:19;;;;;;;;;;;;;;;14.58;100.00;100942.13;5114459;28;19955;-57
2023/04/02 00:22:44;;;;;;;;;;;;;;;14.94;100.00;100950.53;5119669;28;19920;-58
2023/04/02 00:25:12;;;;;;;;;;;;;;;14.72;100.00;100952.81;5114641;28;19923;-57
2023/04/02 00:27:37;;;;;;;;;;;;;;;14.70;100.00;100947.63;5117426;28;19916;-57
2023/04/02 00:30:03;;;;;;;;;;;;;;;14.75;100.00;100955.88;5109478;28;19916;-59
2023/04/02 00:32:33;;;;;;;;;;;;;;;14.22;100.00;100959.78;5120973;28;19915;-55
2023/04/02 00:35:00;;;;;;;;;;;;;;;14.56;100.00;100964.94;5119323;28;19923;-54
2023/04/02 00:37:37;;;;;;;;;;;;;;;14.76;100.00;100976.41;5123060;28;19923;-53
2023/04/02 00:40:22;;;;;;;;;;;;;;;14.40;100.00;100980.56;5118556;28;19955;-57
2023/04/02 00:42:48;;;;;;;;;;;;;;;14.30;100.00;100986.41;5118286;28;19983;-57
2023/04/02 00:45:18;;;;;;;;;;;;;;;14.44;100.00;100986.34;5124533;28;19923;-58
2023/04/02 00:47:44;;;;;;;;;;;;;;;14.56;100.00;100999.91;5133118;27;19998;-57
2023/04/02 00:50:14;;;;;;;;;;;;;;;14.52;100.00;101001.38;5118794;28;19920;-54
2023/04/02 00:52:41;;;;;;;;;;;;;;;14.46;100.00;100995.03;5119188;28;19920;-56
2023/04/02 00:55:11;;;;;;;;;;;;;;;14.42;100.00;101009.94;5121696;28;20001;-54
2023/04/02 00:57:40;;;;;;;;;;;;;;;14.35;100.00;101015.38;5102626;28;19938;-56
2023/04/02 01:00:16;;;;;;;;;;;;;;;14.43;100.00;101014.28;5111192;28;19946;-56
2023/04/02 01:03:03;;;;;;;;;;;;;;;14.65;100.00;101035.44;5114940;28;19924;-56
2023/04/02 01:05:32;;;;;;;;;;;;;;;14.70;100.00;101028.38;5129388;28;19915;-51
2023/04/02 01:08:21;;;;;;;;;;;;;;;14.70;100.00;101031.06;5098364;28;19938;-58
2023/04/02 01:11:02;;;;;;;;;;;;;;;14.25;100.00;101028.44;5091629;28;19915;-57
2023/04/02 01:13:33;;;;;;;;;;;;;;;14.36;100.00;101043.91;5095850;28;19916;-57
2023/04/02 01:16:29;;;;;;;;;;;;;;;14.34;100.00;101046.00;5098157;28;19934;-53
2023/04/02 01:19:00;;;;;;;;;;;;;;;13.49;100.00;101053.13;5052561;28;19913;-57
2023/04/02 01:21:27;;;;;;;;;;;;;;;14.17;100.00;101051.03;5115148;28;19931;-54
2023/04/02 01:23:55;;;;;;;;;;;;;;;14.36;100.00;101060.06;5116004;28;20026;-55
2023/04/02 01:26:33;;;;;;;;;;;;;;;14.37;100.00;101061.72;5128243;27;19920;-56
2023/04/02 01:29:01;;;;;;;;;;;;;;;14.08;100.00;101057.72;5098279;28;19924;-56
2023/04/02 01:31:27;;;;;;;;;;;;;;;13.88;100.00;101063.97;5134119;27;19987;-58
2023/04/02 01:33:53;;;;;;;;;;;;;;;14.10;100.00;101061.84;5102284;28;19980;-59
2023/04/02 01:36:26;;;;;;;;;;;;;;;13.88;100.00;101074.72;5100097;28;19967;-56
2023/04/02 01:39:04;;;;;;;;;;;;;;;14.27;100.00;101069.41;5116861;28;19937;-58
2023/04/02 01:41:35;;;;;;;;;;;;;;;13.98;100.00;101080.50;5118557;28;19983;-55
2023/04/02 01:44:06;;;;;;;;;;;;;;;14.08;100.00;101076.53;5136471;27;20426;-55
2023/04/02 01:46:33;;;;;;;;;;;;;;;14.03;100.00;101085.22;5118272;28;19916;-55
2023/04/02 01:49:08;;;;;;;;;;;;;;;14.04;100.00;101095.78;5117578;28;19919;-51
2023/04/02 01:51:34;;;;;;;;;;;;;;;13.94;100.00;101094.56;5102153;28;19919;-51
2023/04/02 01:54:04;;;;;;;;;;;;;;;13.56;100.00;101096.94;5136605;27;19927;-51
2023/04/02 01:56:30;;;;;;;;;;;;;;;14.07;100.00;101107.16;5132646;27;19924;-51
2023/04/02 01:58:57;;;;;;;;;;;;;;;14.01;100.00;101116.88;5131967;27;19987;-52
2023/04/02 02:01:25;;;;;;;;;;;;;;;14.05;100.00;101126.16;5104189;28;19924;-53
2023/04/02 02:03:51;;;;;;;;;;;;;;;14.32;100.00;101126.09;5101822;28;19939;-53
2023/04/02 02:06:17;;;;;;;;;;;;;;;14.04;100.00;101128.06;5096638;28;20375;-56
2023/04/02 02:08:43;;;;;;;;;;;;;;;13.90;100.00;101134.50;5099625;28;19931;-55
2023/04/02 02:11:13;;;;;;;;;;;;;;;13.93;100.00;101136.75;5101800;28;19924;-54
2023/04/02 02:13:40;;;;;;;;;;;;;;;13.81;100.00;101133.88;5098118;28;19923;-56
2023/04/02 02:16:06;;;;;;;;;;;;;;;13.76;100.00;101145.28;5107435;28;19927;-51
2023/04/02 02:18:32;;;;;;;;;;;;;;;13.72;100.00;101135.97;5138044;27;19943;-54
2023/04/02 02:20:58;;;;;;;;;;;;;;;13.76;100.00;101147.13;5138896;27;19920;-53
2023/04/02 02:23:25;;;;;;;;;;;;;;;13.80;100.00;101159.13;5119780;28;19915;-56
2023/04/02 02:25:53;;;;;;;;;;;;;;;13.70;100.00;101159.53;5103207;28;19916;-56
2023/04/02 02:28:34;;;;;;;;;;;;;;;13.70;100.00;101170.28;5123322;28;19916;-57
2023/04/02 02:31:11;;;;;;;;;;;;;;;13.84;100.00;101171.13;5102032;28;19920;-56
2023/04/02 02:33:44;;;;;;;;;;;;;;;13.70;100.00;101178.34;5100481;28;19923;-59
2023/04/02 02:36:19;;;;;;;;;;;;;;;13.59;100.00;101177.13;5138849;27;19941;-54
2023/04/02 02:38:49;;;;;;;;;;;;;;;13.71;100.00;101184.56;5119886;28;19916;-59
2023/04/02 02:41:41;;;;;;;;;;;;;;;13.32;100.00;101181.66;5142303;27;19919;-57
2023/04/02 02:44:08;;;;;;;;;;;;;;;12.66;100.00;101183.13;5100775;28;19950;-55
2023/04/02 02:46:39;;;;;;;;;;;;;;;12.70;100.00;101195.97;5104110;28;19920;-53
2023/04/02 02:49:09;;;;;;;;;;;;;;;12.65;100.00;101195.72;5104602;28;19930;-52
2023/04/02 02:51:53;;;;;;;;;;;;;;;12.90;100.00;101203.22;5123052;28;19916;-56
2023/04/02 02:54:28;;;;;;;;;;;;;;;13.18;100.00;101205.78;5135146;27;19934;-52
2023/04/02 02:56:57;;;;;;;;;;;;;;;13.48;100.00;101221.56;5116665;28;19916;-53
2023/04/02 02:59:25;;;;;;;;;;;;;;;13.71;100.00;101227.56;5136003;27;19943;-58
2023/04/02 03:01:51;;;;;;;;;;;;;;;13.84;100.00;101227.59;5102361;28;19920;-52
2023/04/02 03:04:23;;;;;;;;;;;;;;;13.28;100.00;101232.25;5137220;27;19922;-54
2023/04/02 03:06:52;;;;;;;;;;;;;;;13.39;100.00;101228.13;5103206;28;19916;-54
2023/04/02 03:09:38;;;;;;;;;;;;;;;13.50;100.00;101233.97;5100657;28;19995;-52
2023/04/02 03:12:07;;;;;;;;;;;;;;;12.93;100.00;101228.84;5101646;28;19920;-50
2023/04/02 03:14:44;;;;;;;;;;;;;;;13.32;100.00;101244.22;5102134;28;19919;-51
2023/04/02 03:17:22;;;;;;;;;;;;;;;13.16;100.00;101253.50;5101833;28;19927;-53
2023/04/02 03:19:54;;;;;;;;;;;;;;;12.82;100.00;101259.78;5104779;28;19916;-55
2023/04/02 03:22:30;;;;;;;;;;;;;;;12.82;100.00;101252.56;5134851;27;19924;-55
2023/04/02 03:24:59;;;;;;;;;;;;;;;13.08;100.00;101266.28;5103039;28;19945;-55
2023/04/02 03:27:31;;;;;;;;;;;;;;;13.00;100.00;101267.28;5133077;27;19951;-55
2023/04/02 03:30:16;;;;;;;;;;;;;;;12.85;100.00;101275.47;5101953;28;19915;-55
2023/04/02 03:32:43;;;;;;;;;;;;;;;12.69;100.00;101280.19;5134094;27;19923;-55
2023/04/02 03:35:32;;;;;;;;;;;;;;;13.00;100.00;101288.75;5138033;27;20004;-53
2023/04/02 03:38:05;;;;;;;;;;;;;;;13.11;100.00;101298.09;5135819;27;19915;-52
2023/04/02 03:40:33;;;;;;;;;;;;;;;13.04;100.00;101308.84;5093702;28;19934;-54
2023/04/02 03:42:59;;;;;;;;;;;;;;;12.98;100.00;101313.13;5112195;28;19924;-56
2023/04/02 03:45:32;;;;;;;;;;;;;;;13.11;100.00;101319.56;5100320;28;19920;-54
2023/04/02 03:48:01;;;;;;;;;;;;;;;13.08;100.00;101322.66;5118664;28;19916;-57
2023/04/02 03:50:31;;;;;;;;;;;;;;;12.66;100.00;101336.09;5132207;27;19945;-52
2023/04/02 03:53:00;;;;;;;;;;;;;;;12.66;100.00;101336.91;5096996;28;19920;-55
2023/04/02 03:55:29;;;;;;;;;;;;;;;13.12;100.00;101338.19;5120841;28;19922;-55
2023/04/02 03:58:02;;;;;;;;;;;;;;;12.90;100.00;101343.66;5114287;28;19916;-54
2023/04/02 04:00:50;;;;;;;;;;;;;;;12.77;100.00;101346.25;5100631;28;20469;-53
2023/04/02 04:03:19;;;;;;;;;;;;;;;12.90;100.00;101353.56;5096416;28;19916;-56
2023/04/02 04:05:49;;;;;;;;;;;;;;;13.20;100.00;101356.00;5104239;28;20564;-56
2023/04/02 04:08:17;;;;;;;;;;;;;;;13.08;100.00;101353.03;5096026;28;19922;-54
2023/04/02 04:10:44;;;;;;;;;;;;;;;13.13;100.00;101365.84;5135977;28;19916;-55
2023/04/02 04:13:15;;;;;;;;;;;;;;;12.92;100.00;101367.63;5118186;28;19916;-56
2023/04/02 04:15:47;;;;;;;;;;;;;;;13.27;100.00;101374.81;5102863;28;19959;-55
2023/04/02 04:18:18;;;;;;;;;;;;;;;13.17;100.00;101377.88;5100105;28;19963;-55
2023/04/02 04:20:44;;;;;;;;;;;;;;;12.92;100.00;101378.38;5104928;28;19942;-55
2023/04/02 04:23:29;;;;;;;;;;;;;;;12.67;100.00;101386.84;5120407;28;19916;-52
2023/04/02 04:26:08;;;;;;;;;;;;;;;12.86;100.00;101392.56;5101933;28;19916;-54
2023/04/02 04:28:48;;;;;;;;;;;;;;;12.84;100.00;101398.13;5138765;28;19973;-53
2023/04/02 04:31:25;;;;;;;;;;;;;;;12.85;100.00;101405.16;5120751;28;19916;-53
2023/04/02 04:34:01;;;;;;;;;;;;;;;12.38;100.00;101409.38;5136537;28;19916;-55
2023/04/02 04:36:30;;;;;;;;;;;;;;;12.59;100.00;101411.16;5101431;28;19915;-54
2023/04/02 04:39:13;;;;;;;;;;;;;;;12.78;100.00;101423.06;5101636;28;19920;-57
2023/04/02 04:41:44;;;;;;;;;;;;;;;12.78;100.00;101431.13;5098855;28;19920;-54
2023/04/02 04:44:19;;;;;;;;;;;;;;;13.05;100.00;101431.31;5113963;28;19916;-54
2023/04/02 04:47:02;;;;;;;;;;;;;;;13.00;100.00;101439.94;5105251;28;19990;-56
2023/04/02 04:49:34;;;;;;;;;;;;;;;13.05;100.00;101448.25;5101549;28;20003;-54
2023/04/02 04:52:13;;;;;;;;;;;;;;;12.83;100.00;101457.38;5097826;28;19925;-55
2023/04/02 04:54:39;;;;;;;;;;;;;;;12.61;100.00;101460.94;5097791;28;19942;-56
2023/04/02 04:57:19;;;;;;;;;;;;;;;13.02;100.00;101463.91;5096014;28;19916;-55
2023/04/02 04:59:50;;;;;;;;;;;;;;;12.61;100.00;101469.00;5093233;28;19916;-56
2023/04/02 05:02:16;;;;;;;;;;;;;;;12.73;100.00;101469.28;5094023;28;19920;-53
2023/04/02 05:04:43;;;;;;;;;;;;;;;12.57;100.00;101478.44;5099564;28;19921;-56
2023/04/02 05:07:26;;;;;;;;;;;;;;;12.59;100.00;101489.81;5097295;28;19917;-56
2023/04/02 05:10:00;;;;;;;;;;;;;;;12.55;100.00;101498.44;5096124;28;19920;-53
2023/04/02 05:12:41;;;;;;;;;;;;;;;12.86;100.00;101502.63;5097690;28;19916;-55
2023/04/02 05:15:31;;;;;;;;;;;;;;;12.84;100.00;101518.94;5097292;28;20156;-57
2023/04/02 05:18:00;;;;;;;;;;;;;;;12.79;100.00;101515.16;5100714;28;19916;-56
2023/04/02 05:20:39;;;;;;;;;;;;;;;12.62;100.00;101527.00;5101237;28;19920;-57
2023/04/02 05:23:09;;;;;;;;;;;;;;;12.72;100.00;101525.84;5100920;28;19951;-56
2023/04/02 05:25:36;;;;;;;;;;;;;;;12.44;100.00;101527.41;5101880;28;20042;-56
2023/04/02 05:28:14;;;;;;;;;;;;;;;12.48;100.00;101534.09;5105140;28;19916;-55
2023/04/02 05:30:51;;;;;;;;;;;;;;;12.47;100.00;101542.31;5104495;28;19916;-54
2023/04/02 05:33:29;;;;;;;;;;;;;;;12.30;100.00;101550.59;5096148;28;19916;-56
2023/04/02 05:36:04;;;;;;;;;;;;;;;11.96;100.00;101551.19;5094176;28;19956;-56
2023/04/02 05:38:38;;;;;;;;;;;;;;;12.27;100.00;101559.03;5095774;28;19917;-57
2023/04/02 05:41:07;;;;;;;;;;;;;;;12.24;100.00;101559.41;5096863;28;19954;-54
2023/04/02 05:43:33;;;;;;;;;;;;;;;11.85;100.00;101555.19;5098436;28;19947;-55
2023/04/02 05:46:06;;;;;;;;;;;;;;;11.95;100.00;101565.63;5100875;28;20379;-54
2023/04/02 05:48:42;;;;;;;;;;;;;;;12.04;100.00;101578.75;5096414;28;19917;-50
2023/04/02 05:51:19;;;;;;;;;;;;;;;12.09;100.00;101580.88;5097964;28;19927;-55
2023/04/02 05:53:48;;;;;;;;;;;;;;;12.24;100.00;101586.22;5094480;28;19939;-56
2023/04/02 05:56:30;;;;;;;;;;;;;;;12.15;100.00;101588.19;5101146;28;19916;-50
2023/04/02 05:59:19;;;;;;;;;;;;;;;11.98;100.00;101592.03;5103784;28;19924;-55
2023/04/02 06:02:01;;;;;;;;;;;;;;;12.43;100.00;101600.06;5100035;28;19920;-55
2023/04/02 06:04:41;;;;;;;;;;;;;;;12.35;100.00;101609.03;5097352;28;19923;-51
2023/04/02 06:07:14;;;;;;;;;;;;;;;12.61;100.00;101630.00;5097934;28;19959;-55
2023/04/02 06:09:48;;;;;;;;;;;;;;;12.24;100.00;101625.63;5101500;28;19965;-55
2023/04/02 06:12:22;;;;;;;;;;;;;;;11.98;100.00;101635.78;5101092;28;19912;-53
2023/04/02 06:14:48;;;;;;;;;;;;;;;11.95;100.00;101635.31;5095785;28;19923;-53
2023/04/02 06:17:16;;;;;;;;;;;;;;;12.02;100.00;101642.47;5099349;28;19924;-53
2023/04/02 06:19:43;;;;;;;;;;;;;;;12.16;100.00;101653.38;5098293;28;19980;-55
2023/04/02 06:22:15;;;;;;;;;;;;;;;12.37;100.00;101663.34;5098689;28;19928;-54
2023/04/02 06:24:44;;;;;;;;;;;;;;;12.57;100.00;101668.13;5096435;28;19987;-57
2023/04/02 06:27:11;;;;;;;;;;;;;;;12.43;100.00;101669.81;5096758;28;19923;-55
2023/04/02 06:29:41;;;;;;;;;;;;;;;12.04;100.00;101671.78;5096380;28;19928;-53
2023/04/02 06:32:11;;;;;;;;;;;;;;;12.39;100.00;101672.03;5101234;28;19927;-53
2023/04/02 06:34:40;;;;;;;;;;;;;;;12.67;100.00;101686.59;5098160;28;19999;-55
2023/04/02 06:37:27;;;;;;;;;;;;;;;12.58;100.00;101691.25;5098885;28;19916;-51
2023/04/02 06:40:00;;;;;;;;;;;;;;;12.09;100.00;101687.28;5103242;28;19930;-53
2023/04/02 06:42:30;;;;;;;;;;;;;;;12.50;100.00;101689.50;5100961;28;19959;-53
2023/04/02 06:45:21;;;;;;;;;;;;;;;12.51;100.00;101709.94;5098795;28;19916;-52
2023/04/02 06:47:54;;;;;;;;;;;;;;;12.88;99.63;101709.94;5100392;28;19987;-52
2023/04/02 06:50:39;;;;;;;;;;;;;;;12.13;100.00;101705.50;5099651;28;19920;-54
2023/04/02 06:53:08;;;;;;;;;;;;;;;12.37;99.59;101722.34;5104101;28;19920;-55
2023/04/02 06:55:39;;;;;;;;;;;;;;;12.60;100.00;101727.63;5094829;28;19917;-51
2023/04/02 06:58:05;;;;;;;;;;;;;;;12.72;100.00;101727.97;5101379;28;19916;-57
2023/04/02 07:00:40;;;;;;;;;;;;;;;12.66;100.00;101739.44;5100011;28;19920;-52
2023/04/02 07:03:15;;;;;;;;;;;;;;;12.35;100.00;101740.47;5098306;28;19920;-56
2023/04/02 07:05:40;;;;;;;;;;;;;;;12.40;100.00;101739.94;5099854;28;19927;-55
2023/04/02 07:08:06;;;;;;;;;;;;;;;12.80;100.00;101761.06;5101337;28;20039;-52
2023/04/02 07:10:32;;;;;;;;;;;;;;;12.60;100.00;101767.00;5100653;28;19951;-52
2023/04/02 07:12:58;;;;;;;;;;;;;;;12.53;100.00;101772.28;5103621;28;19916;-51
2023/04/02 07:15:24;;;;;;;;;;;;;;;12.13;100.00;101777.91;5101348;28;19916;-51
2023/04/02 07:17:50;;;;;;;;;;;;;;;12.72;100.00;101786.16;5095377;28;19964;-52
2023/04/02 07:20:23;;;;;;;;;;;;;;;12.42;100.00;101788.84;5099813;28;19938;-53
2023/04/02 07:22:49;;;;;;;;;;;;;;;12.61;98.95;101795.50;5099690;28;19921;-55
2023/04/02 07:25:14;;;;;;;;;;;;;;;12.19;100.00;101795.13;5094972;28;19920;-54
2023/04/02 07:27:40;;;;;;;;;;;;;;;12.21;100.00;101811.00;5103582;28;19920;-53
2023/04/02 07:30:06;;;;;;;;;;;;;;;11.96;100.00;101809.38;5098833;28;19920;-53
2023/04/02 07:32:32;;;;;;;;;;;;;;;11.72;100.00;101815.75;5100227;28;19917;-54
2023/04/02 07:34:57;;;;;;;;;;;;;;;11.40;100.00;101828.38;5099163;28;19927;-53
2023/04/02 07:37:23;;;;;;;;;;;;;;;11.53;100.00;101828.59;5099709;28;19971;-51
2023/04/02 07:39:48;;;;;;;;;;;;;;;11.88;100.00;101834.41;5100273;28;19921;-53
2023/04/02 07:42:14;;;;;;;;;;;;;;;11.78;100.00;101833.81;5097230;28;20012;-54
2023/04/02 07:44:39;;;;;;;;;;;;;;;12.26;100.00;101835.47;5103032;28;19921;-54
2023/04/02 07:47:05;;;;;;;;;;;;;;;12.30;100.00;101834.91;5094820;28;19943;-50
2023/04/02 07:49:30;;;;;;;;;;;;;;;11.89;100.00;101840.59;5096975;28;19942;-53
2023/04/02 07:51:56;;;;;;;;;;;;;;;12.03;100.00;101844.38;5113930;28;19920;-56
2023/04/02 07:54:21;;;;;;;;;;;;;;;12.47;99.10;101850.84;5109235;28;19936;-53
2023/04/02 07:56:47;;;;;;;;;;;;;;;12.06;100.00;101857.41;5109955;28;19920;-55
2023/04/02 07:59:12;;;;;;;;;;;;;;;12.44;96.55;101860.06;5113507;28;19924;-50
2023/04/02 08:01:39;;;;;;;;;;;;;;;12.51;100.00;101859.38;5110458;28;19920;-55
2023/04/02 08:04:06;;;;;;;;;;;;;;;12.27;100.00;101863.94;5114231;28;19916;-54
2023/04/02 08:06:32;;;;;;;;;;;;;;;12.23;100.00;101868.00;5114697;28;20032;-55
2023/04/02 08:08:57;;;;;;;;;;;;;;;12.28;95.53;101866.44;5114622;28;19947;-51
2023/04/02 08:11:23;;;;;;;;;;;;;;;12.90;93.94;101866.31;5111307;28;19916;-53
2023/04/02 08:13:48;;;;;;;;;;;;;;;12.72;100.00;101867.53;5110189;28;19941;-54
2023/04/02 08:16:13;;;;;;;;;;;;;;;12.87;93.37;101874.72;5116409;28;19917;-52
2023/04/02 08:18:38;;;;;;;;;;;;;;;13.19;93.79;101878.06;5112097;28;19927;-54
2023/04/02 08:21:05;;;;;;;;;;;;;;;13.40;95.76;101884.50;5117237;28;19974;-53
2023/04/02 08:23:30;;;;;;;;;;;;;;;13.40;92.52;101896.06;5115201;28;19930;-53
2023/04/02 08:25:56;;;;;;;;;;;;;;;13.07;98.39;101891.13;5115499;28;19955;-56
2023/04/02 08:28:22;;;;;;;;;;;;;;;13.25;96.53;101898.78;5113933;28;19938;-52
2023/04/02 08:30:48;;;;;;;;;;;;;;;13.53;95.25;101910.72;5115538;28;19916;-53
2023/04/02 08:33:13;;;;;;;;;;;;;;;13.79;89.84;101926.31;5113055;28;20377;-52
2023/04/02 08:35:39;;;;;;;;;;;;;;;13.73;90.01;101927.06;5118725;28;19916;-55
2023/04/02 08:38:05;;;;;;;;;;;;;;;13.70;88.01;101927.47;5111819;28;19988;-54
2023/04/02 08:40:40;;;;;;;;;;;;;;;14.02;89.17;101936.06;5117972;28;19931;-53
2023/04/02 08:43:24;;;;;;;;;;;;;;;14.00;94.98;101938.97;5111736;28;19924;-51
2023/04/02 08:45:49;;;;;;;;;;;;;;;14.18;89.57;101951.97;5095296;28;19915;-53
2023/04/02 08:48:15;;;;;;;;;;;;;;;13.82;84.76;101947.44;5113630;28;19920;-52
2023/04/02 08:50:42;;;;;;;;;;;;;;;13.94;91.11;101955.03;5112271;28;19935;-54
2023/04/02 08:53:26;;;;;;;;;;;;;;;13.60;90.54;101957.31;5116453;28;19922;-55
2023/04/02 08:56:08;;;;;;;;;;;;;;;13.20;90.93;101958.44;5099956;28;19927;-52
2023/04/02 08:58:41;;;;;;;;;;;;;;;13.33;93.36;101973.91;5116863;28;19916;-52
2023/04/02 09:01:13;;;;;;;;;;;;;;;13.60;93.18;101974.28;5119041;28;19970;-53
2023/04/02 09:03:47;;;;;;;;;;;;;;;13.49;89.47;101972.06;5113620;28;19927;-55
2023/04/02 09:06:15;;;;;;;;;;;;;;;13.82;84.52;101978.88;5118967;28;20394;-54
2023/04/02 09:08:42;;;;;;;;;;;;;;;13.94;83.57;101992.66;5115825;28;19920;-57
2023/04/02 09:11:08;;;;;;;;;;;;;;;13.65;84.65;101989.03;5114350;28;19935;-54
2023/04/02 09:13:37;;;;;;;;;;;;;;;13.59;84.50;101985.22;5117648;28;19927;-55
2023/04/02 09:16:08;;;;;;;;;;;;;;;14.23;82.20;101999.81;5119184;28;19920;-54
2023/04/02 09:18:35;;;;;;;;;;;;;;;13.65;90.30;102002.47;5115140;28;19945;-52
2023/04/02 09:21:22;;;;;;;;;;;;;;;13.93;88.46;102007.13;5113958;28;19919;-54
2023/04/02 09:23:48;;;;;;;;;;;;;;;14.16;85.37;102020.41;5115321;28;19915;-53
2023/04/02 09:26:22;;;;;;;;;;;;;;;14.17;94.93;102017.53;5114131;28;19946;-51
2023/04/02 09:28:49;;;;;;;;;;;;;;;14.34;85.40;102033.47;5095283;28;19923;-53
2023/04/02 09:31:20;;;;;;;;;;;;;;;13.66;86.09;102033.69;5116970;28;19923;-54
2023/04/02 09:33:47;;;;;;;;;;;;;;;13.57;86.06;102031.09;5113197;28;19923;-56
2023/04/02 09:36:33;;;;;;;;;;;;;;;13.73;86.61;102037.31;5117115;28;19967;-55
2023/04/02 09:39:05;;;;;;;;;;;;;;;13.87;86.04;102039.16;5114059;28;19987;-54
2023/04/02 09:41:31;;;;;;;;;;;;;;;13.52;98.38;102038.88;5115579;28;19942;-54
2023/04/02 09:44:20;;;;;;;;;;;;;;;13.59;89.57;102044.34;5115557;28;19919;-55
2023/04/02 09:46:58;;;;;;;;;;;;;;;13.88;87.91;102056.94;5103053;28;19951;-57
2023/04/02 09:49:26;;;;;;;;;;;;;;;13.85;83.96;102067.22;5114839;28;19916;-56
2023/04/02 09:52:09;;;;;;;;;;;;;;;13.72;86.62;102055.28;5116404;28;19928;-55
2023/04/02 09:54:40;;;;;;;;;;;;;;;14.11;84.08;102073.97;5115823;28;20006;-55
2023/04/02 09:57:16;;;;;;;;;;;;;;;13.97;86.91;102073.81;5112687;28;19972;-52
2023/04/02 09:59:41;;;;;;;;;;;;;;;13.91;81.91;102075.38;5113366;28;19988;-55
2023/04/02 10:02:20;;;;;;;;;;;;;;;13.61;82.55;102086.16;5111597;28;19920;-56
2023/04/02 10:04:48;;;;;;;;;;;;;;;14.07;82.82;102091.50;5114170;28;20010;-54
2023/04/02 10:07:35;;;;;;;;;;;;;;;14.37;81.26;102096.81;5110853;28;19916;-55
2023/04/02 10:10:03;;;;;;;;;;;;;;;13.97;81.88;102100.72;5110868;28;19947;-49
2023/04/02 10:12:34;;;;;;;;;;;;;;;14.19;81.00;102106.97;5111676;28;19975;-53
2023/04/02 10:15:00;;;;;;;;;;;;;;;14.24;80.10;102102.88;5110519;28;19916;-51
2023/04/02 10:17:29;;;;;;;;;;;;;;;14.27;78.88;102103.34;5109668;28;19916;-51
2023/04/02 10:20:01;;;;;;;;;;;;;;;14.43;82.46;102104.97;5112611;28;19955;-56
2023/04/02 10:22:26;;;;;;;;;;;;;;;14.36;81.78;102104.06;5110820;28;19935;-51
2023/04/02 10:24:52;;;;;;;;;;;;;;;14.74;76.34;102108.41;5110207;28;19923;-55
2023/04/02 10:27:36;;;;;;;;;;;;;;;15.06;74.90;102117.00;5112276;28;19960;-53
2023/04/02 10:30:02;;;;;;;;;;;;;;;14.89;73.67;102121.81;5112840;28;19928;-51
2023/04/02 10:32:36;;;;;;;;;;;;;;;14.42;75.01;102116.75;5111119;28;19991;-52
2023/04/02 10:35:07;;;;;;;;;;;;;;;14.87;77.26;102121.19;5111252;28;20381;-56
2023/04/02 10:37:45;;;;;;;;;;;;;;;15.48;78.62;102128.72;5114330;28;19961;-55
2023/04/02 10:40:14;;;;;;;;;;;;;;;15.51;78.92;102123.97;5110582;28;19927;-55
2023/04/02 10:42:39;;;;;;;;;;;;;;;15.91;75.46;102130.47;5116338;28;19920;-56
2023/04/02 10:45:05;;;;;;;;;;;;;;;16.31;77.42;102142.47;5110809;28;19947;-55
2023/04/02 10:47:40;;;;;;;;;;;;;;;15.80;72.96;102149.03;5113838;28;19951;-53
2023/04/02 10:50:31;;;;;;;;;;;;;;;16.97;66.46;102148.25;5112507;28;20560;-54
2023/04/02 10:52:57;;;;;;;;;;;;;;;19.66;61.95;102157.91;5109342;28;19935;-53
2023/04/02 10:55:24;;;;;;;;;;;;;;;20.17;56.51;102164.06;5109707;28;19927;-56
2023/04/02 10:57:51;;;;;;;;;;;;;;;19.82;56.38;102159.22;5111785;28;19959;-57
2023/04/02 11:00:21;;;;;;;;;;;;;;;21.01;52.14;102157.09;5113879;28;19916;-55
2023/04/02 11:03:10;;;;;;;;;;;;;;;22.59;49.96;102161.00;5115304;28;19930;-56
2023/04/02 11:05:44;;;;;;;;;;;;;;;22.85;51.41;102165.03;5099043;28;19991;-57
2023/04/02 11:08:10;;;;;;;;;;;;;;;23.56;46.16;102176.53;5109520;28;19922;-54
2023/04/02 11:10:37;;;;;;;;;;;;;;;24.66;42.22;102179.50;5108335;28;19959;-55
2023/04/02 11:13:02;;;;;;;;;;;;;;;24.19;41.82;102185.28;5109893;28;19946;-56
2023/04/02 11:15:28;;;;;;;;;;;;;;;25.10;41.20;102189.47;5112403;28;19916;-57
2023/04/02 11:17:54;;;;;;;;;;;;;;;25.50;44.15;102182.69;5112272;28;19916;-57
2023/04/02 11:20:39;;;;;;;;;;;;;;;26.17;40.92;102187.69;5109148;28;19939;-58
2023/04/02 11:23:11;;;;;;;;;;;;;;;26.80;38.35;102194.13;5110193;28;19924;-58
2023/04/02 11:25:37;;;;;;;;;;;;;;;27.24;39.03;102204.59;5108038;28;19920;-56
2023/04/02 11:28:13;;;;;;;;;;;;;;;26.74;35.63;102198.78;5111032;28;19916;-56
2023/04/02 11:30:38;;;;;;;;;;;;;;;24.14;41.68;102207.09;5114084;28;19916;-57
2023/04/02 11:33:24;;;;;;;;;;;;;;;24.65;39.32;102207.94;5111420;28;19927;-56
2023/04/02 11:35:50;;;;;;;;;;;;;;;24.83;39.17;102195.81;5100202;28;19923;-59
2023/04/02 11:38:17;;;;;;;;;;;;;;;23.72;39.51;102204.88;5113123;28;19920;-57
2023/04/02 11:40:47;;;;;;;;;;;;;;;25.51;38.42;102208.16;5112140;28;19920;-56
2023/04/02 11:43:31;;;;;;;;;;;;;;;26.57;37.33;102210.00;5111933;28;19920;-56
2023/04/02 11:46:02;;;;;;;;;;;;;;;27.15;35.78;102217.22;5111173;28;19940;-58
2023/04/02 11:48:34;;;;;;;;;;;;;;;27.11;35.82;102219.72;5111572;28;19927;-58
2023/04/02 11:51:03;;;;;;;;;;;;;;;27.43;34.15;102220.47;5110585;28;19926;-57
2023/04/02 11:53:28;;;;;;;;;;;;;;;27.85;33.61;102227.56;5112514;28;19916;-55
2023/04/02 11:56:13;;;;;;;;;;;;;;;28.94;31.25;102229.78;5114362;28;19916;-58
2023/04/02 11:58:49;;;;;;;;;;;;;;;29.71;30.88;102232.94;5110204;28;19931;-59
2023/04/02 12:01:33;;;;;;;;;;;;;;;29.21;32.42;102227.63;5112600;28;19920;-57
2023/04/02 12:04:08;;;;;;;;;;;;;;;29.26;30.03;102227.59;5110962;28;19956;-57
2023/04/02 12:06:38;;;;;;;;;;;;;;;29.80;32.63;102244.97;5106200;28;19926;-58
2023/04/02 12:09:04;;;;;;;;;;;;;;;30.30;29.07;102235.56;5109107;28;20014;-58
2023/04/02 12:11:37;;;;;;;;;;;;;;;30.58;29.98;102257.78;5088208;28;19928;-57
2023/04/02 12:14:25;;;;;;;;;;;;;;;30.55;34.40;102248.16;5111842;28;19919;-58
2023/04/02 12:16:52;;;;;;;;;;;;;;;30.05;33.53;102267.88;5114686;28;19920;-59
2023/04/02 12:19:17;;;;;;;;;;;;;;;30.72;28.26;102258.72;5110144;28;19928;-57
2023/04/02 12:21:50;;;;;;;;;;;;;;;31.20;29.24;102262.41;5112989;28;19956;-59
2023/04/02 12:24:20;;;;;;;;;;;;;;;31.14;27.08;102261.63;5116703;28;19927;-57
2023/04/02 12:26:46;;;;;;;;;;;;;;;32.03;27.23;102263.63;5115736;28;19937;-57
2023/04/02 12:29:16;;;;;;;;;;;;;;;31.97;26.58;102262.09;5117690;28;19951;-58
2023/04/02 12:31:43;;;;;;;;;;;;;;;30.71;30.57;102268.13;5119254;28;19927;-58
2023/04/02 12:34:13;;;;;;;;;;;;;;;31.60;27.01;102268.31;5119636;28;19948;-59
2023/04/02 12:36:39;;;;;;;;;;;;;;;32.43;28.39;102279.72;5118117;28;19916;-57
2023/04/02 12:39:14;;;;;;;;;;;;;;;31.98;27.41;102274.81;5120935;28;19922;-59
2023/04/02 12:41:40;;;;;;;;;;;;;;;31.35;26.27;102277.06;5119642;28;19931;-59
2023/04/02 12:44:12;;;;;;;;;;;;;;;31.73;28.39;102269.47;5126105;28;19999;-59
2023/04/02 12:46:37;;;;;;;;;;;;;;;31.82;28.23;102271.53;5114985;28;19932;-59
2023/04/02 12:49:05;;;;;;;;;;;;;;;31.60;29.77;102265.56;5117632;28;19916;-58
2023/04/02 12:51:32;;;;;;;;;;;;;;;31.74;29.58;102270.25;5116633;28;19950;-59